createdAt,value
2023-03-29T00:02:02.138Z,9.10
2023-03-29T00:04:29.253Z,9.10
2023-03-29T00:06:56.487Z,9.10
2023-03-29T00:09:26.753Z,9.10
2023-03-29T00:11:53.965Z,9.10
2023-03-29T00:14:20.920Z,9.10
2023-03-29T00:16:47.938Z,9.10
2023-03-29T00:19:14.925Z,9.10
2023-03-29T00:21:41.841Z,9.10
2023-03-29T00:24:09.042Z,9.20
2023-03-29T00:26:35.932Z,9.20
2023-03-29T00:29:02.829Z,9.20
2023-03-29T00:31:29.796Z,9.20
2023-03-29T00:33:57.907Z,9.30
2023-03-29T00:36:24.801Z,9.30
2023-03-29T00:38:51.754Z,9.30
2023-03-29T00:41:18.655Z,9.30
2023-03-29T00:46:13.599Z,10.10
2023-03-29T00:48:40.731Z,9.40
2023-03-29T00:51:10.284Z,9.30
2023-03-29T00:53:38.600Z,9.30
2023-03-29T00:56:44.183Z,9.30
2023-03-29T00:59:15.682Z,9.60
2023-03-29T01:01:46.452Z,9.50
2023-03-29T01:04:20.839Z,9.30
2023-03-29T01:06:56.566Z,9.40
2023-03-29T01:09:25.008Z,9.30
2023-03-29T01:11:54.088Z,9.30
2023-03-29T01:14:23.689Z,9.30
2023-03-29T01:16:50.710Z,9.30
2023-03-29T01:19:19.215Z,9.30
2023-03-29T01:21:51.548Z,9.40
2023-03-29T01:24:25.004Z,9.40
2023-03-29T01:26:55.278Z,9.40
2023-03-29T01:29:31.413Z,9.40
2023-03-29T01:32:01.780Z,9.40
2023-03-29T01:34:38.392Z,9.40
2023-03-29T01:37:18.079Z,9.30
2023-03-29T01:39:46.004Z,9.30
2023-03-29T01:42:20.512Z,9.30
2023-03-29T01:44:47.448Z,9.30
2023-03-29T01:47:37.653Z,9.30
2023-03-29T01:50:11.489Z,9.30
2023-03-29T01:52:40.890Z,9.30
2023-03-29T01:55:08.257Z,9.30
2023-03-29T01:57:36.017Z,9.20
2023-03-29T02:00:08.227Z,9.20
2023-03-29T02:02:40.359Z,9.20
2023-03-29T02:05:10.029Z,9.20
2023-03-29T02:07:38.239Z,9.20
2023-03-29T02:10:06.756Z,9.20
2023-03-29T02:12:33.969Z,9.10
2023-03-29T02:17:30.540Z,9.10
2023-03-29T02:20:00.856Z,9.10
2023-03-29T02:22:30.131Z,9.10
2023-03-29T02:24:59.353Z,9.10
2023-03-29T02:27:28.148Z,9.10
2023-03-29T02:29:55.226Z,9.10
2023-03-29T02:32:27.529Z,9.10
2023-03-29T02:35:06.725Z,9.10
2023-03-29T02:37:34.540Z,9.10
2023-03-29T02:40:01.675Z,9.10
2023-03-29T02:42:28.974Z,9.10
2023-03-29T02:44:57.535Z,9.10
2023-03-29T02:47:32.239Z,9.20
2023-03-29T02:50:00.314Z,9.30
2023-03-29T02:52:33.544Z,9.10
2023-03-29T02:55:03.138Z,9.10
2023-03-29T02:57:32.457Z,9.10
2023-03-29T03:00:01.170Z,9.10
2023-03-29T03:02:28.185Z,9.10
2023-03-29T03:04:56.146Z,9.10
2023-03-29T03:07:24.883Z,9.10
2023-03-29T03:09:53.888Z,9.10
2023-03-29T03:12:20.865Z,9.10
2023-03-29T03:14:48.379Z,9.10
2023-03-29T03:17:15.327Z,9.10
2023-03-29T03:19:42.606Z,9.10
2023-03-29T03:22:11.698Z,9.10
2023-03-29T03:24:38.613Z,9.00
2023-03-29T03:27:06.287Z,9.00
2023-03-29T03:29:33.384Z,9.00
2023-03-29T03:32:25.976Z,9.00
2023-03-29T03:35:11.782Z,9.00
2023-03-29T03:37:40.745Z,9.00
2023-03-29T03:40:09.298Z,9.00
2023-03-29T03:42:36.184Z,9.00
2023-03-29T03:45:03.289Z,9.00
2023-03-29T03:47:51.201Z,9.00
2023-03-29T03:50:41.306Z,9.00
2023-03-29T03:53:09.418Z,9.00
2023-03-29T03:55:56.360Z,9.00
2023-03-29T03:58:27.211Z,9.00
2023-03-29T04:00:55.037Z,9.00
2023-03-29T04:03:37.686Z,9.00
2023-03-29T04:06:05.677Z,9.10
2023-03-29T04:08:52.811Z,9.10
2023-03-29T04:11:29.689Z,9.10
2023-03-29T04:13:57.765Z,9.10
2023-03-29T04:16:29.292Z,9.20
2023-03-29T04:19:02.829Z,9.20
2023-03-29T04:21:30.079Z,9.20
2023-03-29T04:23:57.656Z,9.20
2023-03-29T04:26:24.723Z,9.20
2023-03-29T04:29:07.238Z,9.20
2023-03-29T04:31:40.830Z,9.20
2023-03-29T04:34:18.634Z,9.30
2023-03-29T04:36:46.733Z,9.30
2023-03-29T04:39:19.431Z,9.30
2023-03-29T04:41:51.212Z,9.30
2023-03-29T04:44:25.080Z,9.30
2023-03-29T04:46:52.432Z,9.30
2023-03-29T04:49:24.594Z,9.30
2023-03-29T04:51:53.742Z,9.30
2023-03-29T04:54:24.106Z,9.40
2023-03-29T04:57:10.052Z,9.40
2023-03-29T04:59:59.785Z,9.40
2023-03-29T05:02:49.737Z,9.40
2023-03-29T05:05:17.463Z,9.40
2023-03-29T05:07:46.120Z,9.40
2023-03-29T05:10:15.017Z,9.40
2023-03-29T05:12:42.358Z,9.40
2023-03-29T05:15:10.330Z,9.40
2023-03-29T05:17:37.533Z,9.40
2023-03-29T05:20:13.196Z,9.40
2023-03-29T05:22:43.561Z,9.50
2023-03-29T05:25:17.075Z,9.50
2023-03-29T05:27:45.859Z,9.50
2023-03-29T05:30:15.371Z,9.50
2023-03-29T05:33:00.407Z,9.50
2023-03-29T05:35:29.892Z,9.50
2023-03-29T05:37:58.279Z,9.50
2023-03-29T05:40:26.306Z,9.50
2023-03-29T05:43:12.242Z,9.50
2023-03-29T05:45:39.455Z,9.50
2023-03-29T05:48:06.528Z,9.50
2023-03-29T05:50:34.730Z,9.50
2023-03-29T05:53:01.863Z,9.50
2023-03-29T05:55:28.789Z,9.40
2023-03-29T05:57:55.937Z,9.50
2023-03-29T06:00:26.848Z,9.40
2023-03-29T06:03:14.075Z,9.50
2023-03-29T06:05:49.973Z,9.50
2023-03-29T06:08:17.598Z,9.40
2023-03-29T06:11:05.014Z,9.50
2023-03-29T06:13:50.814Z,9.50
2023-03-29T06:16:17.909Z,9.50
2023-03-29T06:18:44.941Z,9.50
2023-03-29T06:21:12.746Z,9.50
2023-03-29T06:23:40.201Z,9.50
2023-03-29T06:26:07.308Z,9.50
2023-03-29T06:28:36.588Z,9.50
2023-03-29T06:31:05.291Z,9.50
2023-03-29T06:33:38.242Z,9.50
2023-03-29T06:36:23.872Z,9.50
2023-03-29T06:38:50.834Z,9.60
2023-03-29T06:41:41.044Z,9.60
2023-03-29T06:44:08.887Z,9.60
2023-03-29T06:46:44.745Z,9.60
2023-03-29T06:49:12.038Z,9.60
2023-03-29T06:52:01.141Z,9.60
2023-03-29T06:54:28.400Z,9.70
2023-03-29T06:57:03.983Z,9.70
2023-03-29T06:59:33.503Z,9.70
2023-03-29T07:02:19.032Z,9.80
2023-03-29T07:04:59.217Z,9.80
2023-03-29T07:07:39.784Z,9.80
2023-03-29T07:10:21.841Z,9.90
2023-03-29T07:13:15.676Z,9.90
2023-03-29T07:15:43.541Z,9.90
2023-03-29T07:18:20.424Z,9.90
2023-03-29T07:20:48.578Z,10.00
2023-03-29T07:23:15.609Z,10.00
2023-03-29T07:28:11.266Z,10.00
2023-03-29T07:30:38.869Z,10.00
2023-03-29T07:33:12.394Z,10.10
2023-03-29T07:35:51.969Z,10.10
2023-03-29T07:38:19.041Z,10.10
2023-03-29T07:40:53.900Z,10.10
2023-03-29T07:43:39.355Z,10.10
2023-03-29T07:46:07.077Z,10.10
2023-03-29T07:48:37.285Z,10.20
2023-03-29T07:51:16.250Z,10.20
2023-03-29T07:53:45.324Z,10.30
2023-03-29T07:56:41.617Z,10.30
2023-03-29T07:59:28.755Z,10.30
2023-03-29T08:02:06.717Z,10.30
2023-03-29T08:04:38.307Z,10.40
2023-03-29T08:07:16.976Z,10.40
2023-03-29T08:10:09.374Z,10.50
2023-03-29T08:12:54.007Z,10.50
2023-03-29T08:15:28.875Z,10.50
2023-03-29T08:17:55.901Z,10.60
2023-03-29T08:20:23.040Z,10.60
2023-03-29T08:22:54.678Z,10.70
2023-03-29T08:25:29.522Z,10.70
2023-03-29T08:27:58.021Z,10.70
2023-03-29T08:30:45.658Z,10.70
2023-03-29T08:33:13.088Z,10.80
2023-03-29T08:35:41.449Z,10.80
2023-03-29T08:38:25.478Z,10.80
2023-03-29T08:40:52.951Z,10.90
2023-03-29T08:43:25.980Z,11.00
2023-03-29T08:46:34.282Z,11.00
2023-03-29T08:49:12.716Z,11.00
2023-03-29T08:51:42.837Z,11.00
2023-03-29T08:54:16.274Z,11.10
2023-03-29T08:57:06.742Z,11.10
2023-03-29T08:59:37.727Z,11.20
2023-03-29T09:02:14.984Z,11.20
2023-03-29T09:04:42.604Z,11.20
2023-03-29T09:07:38.764Z,11.30
2023-03-29T09:10:06.749Z,11.30
2023-03-29T09:12:44.130Z,11.30
2023-03-29T09:15:29.112Z,11.40
2023-03-29T09:18:23.036Z,11.40
2023-03-29T09:20:49.964Z,11.40
2023-03-29T09:23:36.943Z,11.40
2023-03-29T09:26:22.423Z,11.40
2023-03-29T09:29:09.482Z,11.40
2023-03-29T09:31:39.225Z,11.40
2023-03-29T09:34:13.704Z,11.40
2023-03-29T09:37:11.301Z,11.50
2023-03-29T09:39:41.041Z,11.50
2023-03-29T09:42:12.764Z,11.50
2023-03-29T09:45:08.320Z,11.50
2023-03-29T09:47:49.800Z,11.50
2023-03-29T09:50:30.325Z,11.50
2023-03-29T09:52:59.146Z,11.50
2023-03-29T09:55:30.102Z,11.50
2023-03-29T09:58:27.607Z,11.50
2023-03-29T10:00:59.471Z,11.50
2023-03-29T10:03:31.215Z,11.50
2023-03-29T10:06:12.990Z,11.50
2023-03-29T10:08:47.194Z,11.50
2023-03-29T10:11:18.375Z,11.50
2023-03-29T10:13:47.481Z,11.50
2023-03-29T10:16:22.101Z,11.50
2023-03-29T10:18:50.386Z,11.50
2023-03-29T10:21:20.984Z,11.50
2023-03-29T10:23:48.716Z,11.50
2023-03-29T10:26:29.473Z,11.50
2023-03-29T10:28:57.428Z,11.50
2023-03-29T10:31:25.034Z,11.40
2023-03-29T10:33:53.108Z,11.50
2023-03-29T10:36:20.612Z,11.40
2023-03-29T10:38:47.721Z,11.40
2023-03-29T10:41:15.987Z,11.40
2023-03-29T10:43:44.679Z,11.40
2023-03-29T10:46:17.665Z,11.40
2023-03-29T10:48:49.586Z,11.40
2023-03-29T10:51:17.526Z,11.30
2023-03-29T10:53:44.628Z,11.30
2023-03-29T10:56:11.480Z,11.30
2023-03-29T10:58:56.833Z,11.30
2023-03-29T11:01:34.797Z,11.30
2023-03-29T11:04:02.241Z,11.20
2023-03-29T11:06:32.618Z,11.20
2023-03-29T11:09:02.047Z,11.20
2023-03-29T11:11:28.928Z,11.20
2023-03-29T11:14:25.419Z,11.20
2023-03-29T11:16:55.098Z,11.20
2023-03-29T11:19:25.156Z,11.20
2023-03-29T11:21:59.155Z,11.20
2023-03-29T11:24:38.560Z,11.20
2023-03-29T11:27:05.487Z,11.20
2023-03-29T11:29:55.511Z,11.20
2023-03-29T11:32:34.756Z,11.20
2023-03-29T11:35:20.549Z,11.20
2023-03-29T11:37:50.483Z,11.20
2023-03-29T11:40:26.640Z,11.20
2023-03-29T11:42:56.127Z,11.20
2023-03-29T11:45:26.591Z,11.20
2023-03-29T11:47:55.555Z,11.30
2023-03-29T11:50:36.939Z,11.30
2023-03-29T11:53:08.670Z,11.40
2023-03-29T11:55:37.348Z,11.40
2023-03-29T11:58:06.642Z,11.50
2023-03-29T12:00:45.649Z,11.50
2023-03-29T12:03:32.539Z,11.60
2023-03-29T12:06:04.544Z,11.60
2023-03-29T12:08:35.415Z,11.60
2023-03-29T12:11:07.257Z,11.70
2023-03-29T12:13:37.946Z,11.80
2023-03-29T12:16:10.830Z,11.80
2023-03-29T12:18:42.337Z,11.90
2023-03-29T12:21:11.874Z,11.90
2023-03-29T12:23:41.553Z,11.90
2023-03-29T12:26:17.741Z,12.00
2023-03-29T12:29:05.621Z,12.10
2023-03-29T12:31:47.993Z,12.10
2023-03-29T12:34:36.750Z,12.20
2023-03-29T12:37:45.018Z,12.20
2023-03-29T12:40:45.749Z,12.20
2023-03-29T12:43:37.532Z,12.20
2023-03-29T12:46:28.109Z,12.20
2023-03-29T12:48:57.427Z,12.20
2023-03-29T12:51:30.276Z,12.30
2023-03-29T12:54:03.981Z,12.30
2023-03-29T12:57:00.545Z,12.30
2023-03-29T12:59:27.544Z,12.30
2023-03-29T13:01:58.914Z,12.30
2023-03-29T13:04:36.464Z,12.20
2023-03-29T13:07:04.064Z,12.20
2023-03-29T13:09:36.766Z,12.20
2023-03-29T13:12:13.142Z,12.20
2023-03-29T13:14:42.740Z,12.20
2023-03-29T13:17:19.353Z,12.20
2023-03-29T13:19:46.381Z,12.20
2023-03-29T13:22:38.330Z,12.20
2023-03-29T13:25:24.136Z,12.20
2023-03-29T13:28:06.178Z,12.20
2023-03-29T13:30:33.131Z,12.20
2023-03-29T13:33:01.009Z,12.20
2023-03-29T13:35:46.980Z,12.20
2023-03-29T13:38:23.177Z,12.20
2023-03-29T13:40:53.101Z,12.20
2023-03-29T13:43:23.500Z,12.20
2023-03-29T13:45:56.595Z,12.30
2023-03-29T13:48:28.566Z,12.30
2023-03-29T13:50:57.136Z,12.30
2023-03-29T13:53:30.020Z,12.30
2023-03-29T13:55:58.095Z,12.40
2023-03-29T13:58:38.397Z,12.40
2023-03-29T14:01:14.847Z,12.40
2023-03-29T14:03:47.633Z,12.40
2023-03-29T14:06:16.678Z,12.50
2023-03-29T14:08:44.491Z,12.50
2023-03-29T14:11:18.817Z,12.50
2023-03-29T14:13:45.772Z,12.50
2023-03-29T14:16:12.740Z,12.50
2023-03-29T14:18:41.143Z,12.60
2023-03-29T14:21:08.509Z,12.60
2023-03-29T14:23:37.510Z,12.60
2023-03-29T14:26:24.923Z,12.60
2023-03-29T14:28:53.688Z,12.70
2023-03-29T14:31:22.069Z,12.70
2023-03-29T14:33:59.684Z,12.70
2023-03-29T14:36:27.665Z,12.80
2023-03-29T14:39:01.655Z,12.80
2023-03-29T14:41:32.582Z,12.90
2023-03-29T14:44:00.221Z,12.90
2023-03-29T14:46:27.620Z,13.00
2023-03-29T14:48:57.182Z,13.00
2023-03-29T14:51:30.358Z,13.10
2023-03-29T14:54:01.062Z,13.20
2023-03-29T14:56:28.280Z,13.20
2023-03-29T14:58:56.675Z,13.20
2023-03-29T15:01:25.329Z,13.30
2023-03-29T15:03:56.836Z,13.40
2023-03-29T15:06:25.081Z,13.40
2023-03-29T15:09:04.305Z,13.40
2023-03-29T15:11:34.341Z,13.50
2023-03-29T15:14:03.589Z,13.50
2023-03-29T15:16:30.824Z,13.50
2023-03-29T15:18:58.294Z,13.50
2023-03-29T15:21:28.387Z,13.60
2023-03-29T15:23:55.293Z,13.60
2023-03-29T15:26:23.744Z,13.60
2023-03-29T15:28:55.663Z,13.70
2023-03-29T15:31:27.236Z,13.70
2023-03-29T15:34:14.154Z,13.70
2023-03-29T15:36:42.609Z,13.70
2023-03-29T15:39:16.087Z,13.80
2023-03-29T15:41:43.510Z,13.80
2023-03-29T15:44:10.667Z,13.90
2023-03-29T15:46:37.982Z,14.00
2023-03-29T15:49:11.039Z,14.00
2023-03-29T15:51:38.003Z,14.00
2023-03-29T15:54:05.150Z,14.00
2023-03-29T15:56:37.159Z,14.00
2023-03-29T15:59:04.769Z,14.00
2023-03-29T16:01:37.669Z,14.00
2023-03-29T16:04:06.112Z,13.90
2023-03-29T16:06:33.630Z,14.00
2023-03-29T16:09:01.039Z,14.00
2023-03-29T16:11:28.561Z,13.90
2023-03-29T16:13:55.867Z,13.90
2023-03-29T16:16:23.190Z,13.90
2023-03-29T16:18:50.145Z,13.80
2023-03-29T16:21:20.749Z,13.80
2023-03-29T16:23:47.931Z,13.80
2023-03-29T16:26:17.451Z,13.80
2023-03-29T16:28:44.604Z,13.80
2023-03-29T16:31:12.605Z,13.80
2023-03-29T16:33:43.022Z,13.80
2023-03-29T16:36:10.669Z,13.80
2023-03-29T16:38:37.731Z,13.80
2023-03-29T16:41:04.770Z,13.80
2023-03-29T16:43:31.735Z,13.80
2023-03-29T16:45:58.703Z,13.80
2023-03-29T16:48:27.112Z,13.80
2023-03-29T16:50:54.226Z,13.80
2023-03-29T16:53:21.823Z,13.80
2023-03-29T16:55:48.926Z,13.80
2023-03-29T16:58:16.313Z,13.80
2023-03-29T17:00:46.357Z,13.80
2023-03-29T17:03:15.404Z,13.80
2023-03-29T17:05:48.633Z,13.80
2023-03-29T17:08:15.957Z,13.70
2023-03-29T17:10:43.060Z,13.80
2023-03-29T17:13:10.025Z,13.70
2023-03-29T17:15:39.420Z,13.70
2023-03-29T17:18:07.190Z,13.70
2023-03-29T17:20:34.277Z,13.70
2023-03-29T17:23:01.183Z,13.70
2023-03-29T17:25:28.175Z,13.70
2023-03-29T17:27:55.316Z,13.60
2023-03-29T17:30:22.266Z,13.60
2023-03-29T17:32:49.277Z,13.60
2023-03-29T17:35:16.323Z,13.60
2023-03-29T17:37:43.242Z,13.60
2023-03-29T17:40:14.168Z,13.60
2023-03-29T17:42:41.782Z,13.60
2023-03-29T17:45:09.769Z,13.60
2023-03-29T17:47:37.132Z,13.60
2023-03-29T17:50:04.650Z,13.60
2023-03-29T17:52:31.873Z,13.50
2023-03-29T17:54:58.792Z,13.50
2023-03-29T17:57:25.732Z,13.50
2023-03-29T17:59:53.055Z,13.50
2023-03-29T18:02:22.300Z,13.50
2023-03-29T18:04:49.466Z,13.50
2023-03-29T18:07:16.551Z,13.50
2023-03-29T18:09:43.415Z,13.50
2023-03-29T18:12:10.298Z,13.50
2023-03-29T18:14:37.332Z,13.50
2023-03-29T18:17:04.416Z,13.50
2023-03-29T18:19:31.419Z,13.50
2023-03-29T18:21:58.495Z,13.50
2023-03-29T18:24:25.411Z,13.40
2023-03-29T18:26:52.454Z,13.40
2023-03-29T18:29:19.349Z,13.40
2023-03-29T18:31:46.371Z,13.40
2023-03-29T18:34:13.262Z,13.40
2023-03-29T18:36:40.365Z,13.40
2023-03-29T18:39:07.308Z,13.30
2023-03-29T18:41:34.842Z,13.40
2023-03-29T18:44:02.004Z,13.30
2023-03-29T18:46:31.265Z,13.30
2023-03-29T18:49:00.612Z,13.30
2023-03-29T18:51:31.079Z,13.30
2023-03-29T18:53:58.192Z,13.30
2023-03-29T18:56:26.797Z,13.30
2023-03-29T18:58:54.224Z,13.30
2023-03-29T19:01:21.304Z,13.30
2023-03-29T19:03:48.466Z,13.20
2023-03-29T19:06:15.605Z,13.20
2023-03-29T19:08:42.505Z,13.20
2023-03-29T19:11:10.681Z,13.10
2023-03-29T19:13:38.830Z,13.10
2023-03-29T19:16:09.631Z,13.10
2023-03-29T19:18:36.801Z,13.10
2023-03-29T19:21:04.051Z,13.00
2023-03-29T19:23:31.452Z,13.00
2023-03-29T19:26:00.354Z,13.00
2023-03-29T19:28:27.744Z,13.00
2023-03-29T19:30:58.308Z,13.00
2023-03-29T19:33:25.327Z,12.90
2023-03-29T19:35:52.611Z,12.90
2023-03-29T19:38:20.266Z,12.90
2023-03-29T19:40:47.914Z,12.90
2023-03-29T19:43:16.788Z,12.90
2023-03-29T19:45:44.509Z,12.80
2023-03-29T19:48:21.122Z,12.80
2023-03-29T19:50:49.212Z,12.80
2023-03-29T19:53:16.496Z,12.80
2023-03-29T19:55:45.255Z,12.80
2023-03-29T19:58:13.163Z,12.80
2023-03-29T20:00:41.828Z,12.70
2023-03-29T20:03:10.002Z,12.80
2023-03-29T20:05:38.274Z,12.70
2023-03-29T20:08:05.583Z,12.70
2023-03-29T20:10:33.107Z,12.60
2023-03-29T20:13:00.117Z,12.60
2023-03-29T20:15:27.240Z,12.60
2023-03-29T20:17:59.257Z,12.60
2023-03-29T20:20:27.229Z,12.60
2023-03-29T20:22:58.407Z,12.60
2023-03-29T20:25:25.972Z,12.60
2023-03-29T20:27:53.387Z,12.60
2023-03-29T20:30:20.695Z,12.60
2023-03-29T20:32:47.716Z,12.60
2023-03-29T20:35:14.791Z,12.50
2023-03-29T20:37:41.638Z,12.60
2023-03-29T20:40:08.907Z,12.50
2023-03-29T20:42:36.809Z,12.50
2023-03-29T20:45:04.518Z,12.50
2023-03-29T20:47:31.723Z,12.50
2023-03-29T20:49:58.877Z,12.40
2023-03-29T20:52:25.820Z,12.40
2023-03-29T20:54:53.002Z,12.40
2023-03-29T20:57:20.996Z,12.40
2023-03-29T20:59:49.400Z,12.40
2023-03-29T21:02:19.067Z,12.30
2023-03-29T21:04:48.931Z,12.30
2023-03-29T21:07:17.251Z,12.30
2023-03-29T21:09:44.444Z,12.30
2023-03-29T21:12:11.974Z,12.30
2023-03-29T21:14:39.688Z,12.30
2023-03-29T21:17:06.593Z,12.20
2023-03-29T21:19:33.504Z,12.20
2023-03-29T21:22:00.441Z,12.20
2023-03-29T21:24:27.383Z,12.20
2023-03-29T21:26:54.301Z,12.20
2023-03-29T21:29:21.173Z,12.20
2023-03-29T21:31:48.198Z,12.10
2023-03-29T21:34:15.533Z,12.10
2023-03-29T21:36:42.633Z,12.10
2023-03-29T21:39:09.554Z,12.00
2023-03-29T21:41:36.736Z,12.00
2023-03-29T21:44:03.757Z,12.00
2023-03-29T21:46:31.028Z,12.00
2023-03-29T21:48:58.055Z,12.00
2023-03-29T21:51:25.011Z,11.90
2023-03-29T21:53:51.881Z,11.90
2023-03-29T21:56:18.824Z,11.90
2023-03-29T21:58:45.961Z,11.90
2023-03-29T22:01:13.062Z,11.80
2023-03-29T22:03:40.036Z,11.80
2023-03-29T22:06:13.574Z,11.70
2023-03-29T22:08:40.606Z,11.70
2023-03-29T22:11:09.970Z,11.70
2023-03-29T22:13:37.510Z,11.70
2023-03-29T22:16:05.065Z,11.70
2023-03-29T22:18:47.009Z,11.70
2023-03-29T22:21:15.729Z,11.70
2023-03-29T22:23:42.847Z,11.60
2023-03-29T22:26:11.281Z,11.60
2023-03-29T22:28:38.796Z,11.60
2023-03-29T22:31:07.110Z,11.60
2023-03-29T22:33:34.890Z,11.60
2023-03-29T22:36:02.350Z,11.60
2023-03-29T22:38:29.497Z,11.60
2023-03-29T22:40:56.441Z,11.50
2023-03-29T22:43:23.331Z,11.60
2023-03-29T22:45:50.355Z,11.50
2023-03-29T22:48:17.465Z,11.60
2023-03-29T22:50:46.569Z,11.60
2023-03-29T22:53:13.909Z,11.60
2023-03-29T22:55:41.421Z,11.50
2023-03-29T22:58:08.791Z,11.60
2023-03-29T23:00:35.765Z,11.50
2023-03-29T23:03:03.026Z,11.60
2023-03-29T23:05:30.055Z,11.50
2023-03-29T23:07:57.071Z,11.50
2023-03-29T23:10:28.835Z,11.50
2023-03-29T23:13:09.167Z,11.50
2023-03-29T23:15:37.314Z,11.60
2023-03-29T23:18:05.547Z,11.50
2023-03-29T23:20:32.515Z,11.50
2023-03-29T23:23:02.558Z,11.50
2023-03-29T23:25:30.111Z,11.50
2023-03-29T23:27:57.457Z,11.50
2023-03-29T23:30:24.808Z,11.50
2023-03-29T23:32:54.944Z,11.50
2023-03-29T23:35:21.897Z,11.50
2023-03-29T23:37:48.975Z,11.50
2023-03-29T23:40:16.246Z,11.50
2023-03-29T23:42:44.452Z,11.50
2023-03-29T23:45:15.812Z,11.50
2023-03-29T23:47:44.160Z,11.50
2023-03-29T23:50:13.446Z,11.50
2023-03-29T23:52:41.236Z,11.30
2023-03-29T23:55:09.542Z,11.60
2023-03-29T23:57:37.162Z,11.50
